createdAt,value
2018-06-08T00:01:32.056Z,18.70
2018-06-08T00:06:23.872Z,18.75
2018-06-08T00:08:53.148Z,18.75
2018-06-08T00:11:22.594Z,18.72
2018-06-08T00:13:51.861Z,18.74
2018-06-08T00:16:20.985Z,18.72
2018-06-08T00:18:50.244Z,18.73
2018-06-08T00:21:19.569Z,18.72
2018-06-08T00:23:48.896Z,18.64
2018-06-08T00:26:18.253Z,18.63
2018-06-08T00:28:47.533Z,18.66
2018-06-08T00:31:16.716Z,18.65
2018-06-08T00:33:46.024Z,18.67
2018-06-08T00:36:15.404Z,18.63
2018-06-08T00:38:44.680Z,18.61
2018-06-08T00:41:13.899Z,18.61
2018-06-08T00:43:43.192Z,18.58
2018-06-08T00:46:12.505Z,18.64
2018-06-08T00:48:41.884Z,18.63
2018-06-08T00:51:11.058Z,18.58
2018-06-08T00:53:40.376Z,18.54
2018-06-08T00:56:19.543Z,18.54
2018-06-08T00:58:48.782Z,18.52
2018-06-08T01:01:18.179Z,18.52
2018-06-08T01:03:47.528Z,18.46
2018-06-08T01:06:16.925Z,18.47
2018-06-08T01:08:46.265Z,18.48
2018-06-08T01:11:15.524Z,18.47
2018-06-08T01:13:44.976Z,18.49
2018-06-08T01:16:14.167Z,18.50
2018-06-08T01:18:43.393Z,18.50
2018-06-08T01:21:12.620Z,18.50
2018-06-08T01:23:41.935Z,18.47
2018-06-08T01:26:11.337Z,18.47
2018-06-08T01:28:40.697Z,18.49
2018-06-08T01:31:09.908Z,18.48
2018-06-08T01:33:39.139Z,18.43
2018-06-08T01:36:08.510Z,18.37
2018-06-08T01:38:37.832Z,18.37
2018-06-08T01:41:07.100Z,18.37
2018-06-08T01:43:36.301Z,18.37
2018-06-08T01:46:05.576Z,18.32
2018-06-08T01:48:34.704Z,18.25
2018-06-08T01:51:04.056Z,18.22
2018-06-08T01:53:33.228Z,18.23
2018-06-08T01:56:02.552Z,18.24
2018-06-08T01:58:31.780Z,18.24
2018-06-08T02:01:00.932Z,18.21
2018-06-08T02:03:30.233Z,18.17
2018-06-08T02:05:59.317Z,18.18
2018-06-08T02:08:28.621Z,18.20
2018-06-08T02:10:57.948Z,18.18
2018-06-08T02:13:27.096Z,18.20
2018-06-08T02:15:56.392Z,18.16
2018-06-08T02:18:25.343Z,18.13
2018-06-08T02:20:54.582Z,18.10
2018-06-08T02:23:23.929Z,18.14
2018-06-08T02:25:53.144Z,18.12
2018-06-08T02:28:22.507Z,17.93
2018-06-08T02:30:51.728Z,18.04
2018-06-08T02:33:20.952Z,18.04
2018-06-08T02:35:50.289Z,17.97
2018-06-08T02:38:19.451Z,17.92
2018-06-08T02:40:48.780Z,17.91
2018-06-08T02:43:17.916Z,17.90
2018-06-08T02:45:47.123Z,17.94
2018-06-08T02:48:16.423Z,17.93
2018-06-08T02:50:45.638Z,17.91
2018-06-08T02:53:14.703Z,17.93
2018-06-08T02:55:43.672Z,17.88
2018-06-08T02:58:12.600Z,17.87
2018-06-08T03:00:41.864Z,17.83
2018-06-08T03:03:11.096Z,17.81
2018-06-08T03:05:40.412Z,17.79
2018-06-08T03:08:09.632Z,17.82
2018-06-08T03:10:38.969Z,17.80
2018-06-08T03:13:08.252Z,17.88
2018-06-08T03:15:37.501Z,17.92
2018-06-08T03:18:06.852Z,17.93
2018-06-08T03:20:36.048Z,17.96
2018-06-08T03:23:05.324Z,17.98
2018-06-08T03:25:34.569Z,18.00
2018-06-08T03:28:03.604Z,18.04
2018-06-08T03:30:32.905Z,18.01
2018-06-08T03:33:02.069Z,18.12
2018-06-08T03:35:31.353Z,18.20
2018-06-08T03:38:00.684Z,18.26
2018-06-08T03:40:30.005Z,18.31
2018-06-08T03:42:59.319Z,18.35
2018-06-08T03:45:28.609Z,18.40
2018-06-08T03:47:57.908Z,18.41
2018-06-08T03:50:27.129Z,18.46
2018-06-08T03:52:56.455Z,18.49
2018-06-08T03:55:25.656Z,18.51
2018-06-08T03:57:54.937Z,18.55
2018-06-08T04:00:24.165Z,18.60
2018-06-08T04:02:53.388Z,18.68
2018-06-08T04:05:23.093Z,18.75
2018-06-08T04:07:52.388Z,18.80
2018-06-08T04:10:21.794Z,18.79
2018-06-08T04:12:51.054Z,18.81
2018-06-08T04:15:20.344Z,18.85
2018-06-08T04:17:49.608Z,18.90
2018-06-08T04:20:18.880Z,18.99
2018-06-08T04:22:48.213Z,19.06
2018-06-08T04:25:17.452Z,19.11
2018-06-08T04:27:46.780Z,19.15
2018-06-08T04:30:16.072Z,19.20
2018-06-08T04:32:45.402Z,19.31
2018-06-08T04:35:14.767Z,19.37
2018-06-08T04:37:44.105Z,19.45
2018-06-08T04:40:13.224Z,19.52
2018-06-08T04:42:42.443Z,19.61
2018-06-08T04:45:11.777Z,19.67
2018-06-08T04:47:41.105Z,19.83
2018-06-08T04:50:10.232Z,19.93
2018-06-08T04:52:39.454Z,20.04
2018-06-08T04:55:08.712Z,20.12
2018-06-08T04:57:37.961Z,20.22
2018-06-08T05:00:07.260Z,20.34
2018-06-08T05:02:36.596Z,20.52
2018-06-08T05:05:05.864Z,20.63
2018-06-08T05:07:35.126Z,20.69
2018-06-08T05:10:04.464Z,20.76
2018-06-08T05:12:33.725Z,20.86
2018-06-08T05:15:02.803Z,20.97
2018-06-08T05:17:31.737Z,21.11
2018-06-08T05:20:00.912Z,21.19
2018-06-08T05:22:30.096Z,21.26
2018-06-08T05:24:59.347Z,21.44
2018-06-08T05:27:28.529Z,21.62
2018-06-08T05:29:57.796Z,21.77
2018-06-08T05:32:27.016Z,21.95
2018-06-08T05:34:56.388Z,22.10
2018-06-08T05:37:25.446Z,22.21
2018-06-08T05:39:54.836Z,22.36
2018-06-08T05:42:24.064Z,22.59
2018-06-08T05:44:53.084Z,22.80
2018-06-08T05:47:22.169Z,22.97
2018-06-08T05:49:51.537Z,23.15
2018-06-08T05:52:20.961Z,23.35
2018-06-08T05:54:50.103Z,23.57
2018-06-08T05:57:19.032Z,23.77
2018-06-08T05:59:48.185Z,23.93
2018-06-08T06:02:17.493Z,24.03
2018-06-08T06:04:46.905Z,24.06
2018-06-08T06:07:16.074Z,24.11
2018-06-08T06:09:45.228Z,24.17
2018-06-08T06:12:14.387Z,24.21
2018-06-08T06:14:43.661Z,24.28
2018-06-08T06:17:12.971Z,24.38
2018-06-08T06:19:42.211Z,24.52
2018-06-08T06:22:11.520Z,24.68
2018-06-08T06:24:40.552Z,24.79
2018-06-08T06:27:09.544Z,24.92
2018-06-08T06:29:38.544Z,25.15
2018-06-08T06:32:07.824Z,25.40
2018-06-08T06:34:37.153Z,25.62
2018-06-08T06:37:06.480Z,25.85
2018-06-08T06:39:35.787Z,25.96
2018-06-08T06:42:05.130Z,25.98
2018-06-08T06:44:34.518Z,26.04
2018-06-08T06:47:03.942Z,26.11
2018-06-08T06:49:33.402Z,26.10
2018-06-08T06:52:02.805Z,26.20
2018-06-08T06:54:32.315Z,26.36
2018-06-08T06:57:01.742Z,26.60
2018-06-08T06:59:31.136Z,26.79
2018-06-08T07:02:00.579Z,27.03
2018-06-08T07:04:29.988Z,27.19
2018-06-08T07:06:59.375Z,27.40
2018-06-08T07:09:28.759Z,27.38
2018-06-08T07:11:58.205Z,27.47
2018-06-08T07:14:27.644Z,27.63
2018-06-08T07:16:56.631Z,27.69
2018-06-08T07:19:25.607Z,27.83
2018-06-08T07:21:54.565Z,28.01
2018-06-08T07:24:23.548Z,28.15
2018-06-08T07:26:52.592Z,28.15
2018-06-08T07:29:21.589Z,28.28
2018-06-08T07:31:50.624Z,28.37
2018-06-08T07:34:19.533Z,28.47
2018-06-08T07:36:48.480Z,28.41
2018-06-08T07:39:17.512Z,28.38
2018-06-08T07:41:46.464Z,28.42
2018-06-08T07:44:16.525Z,28.42
2018-06-08T07:46:45.776Z,28.51
2018-06-08T07:49:14.836Z,28.71
2018-06-08T07:51:43.840Z,28.84
2018-06-08T07:54:12.873Z,29.00
2018-06-08T07:56:41.873Z,29.22
2018-06-08T07:59:10.872Z,29.24
2018-06-08T08:01:40.454Z,29.31
2018-06-08T08:04:09.780Z,29.43
2018-06-08T08:06:38.704Z,29.56
2018-06-08T08:09:09.872Z,29.67
2018-06-08T08:11:38.953Z,29.64
2018-06-08T08:14:08.272Z,29.58
2018-06-08T08:16:37.660Z,29.58
2018-06-08T08:19:06.717Z,29.74
2018-06-08T08:21:36.192Z,29.88
2018-06-08T08:24:05.584Z,30.07
2018-06-08T08:26:34.912Z,30.24
2018-06-08T08:29:04.316Z,30.34
2018-06-08T08:31:33.648Z,30.45
2018-06-08T08:34:02.588Z,30.56
2018-06-08T08:36:31.637Z,30.55
2018-06-08T08:39:00.716Z,30.65
2018-06-08T08:41:29.849Z,30.82
2018-06-08T08:43:58.777Z,30.94
2018-06-08T08:46:27.795Z,30.93
2018-06-08T08:48:56.757Z,30.89
2018-06-08T08:51:25.781Z,30.80
2018-06-08T08:53:54.908Z,30.77
2018-06-08T08:56:23.836Z,30.88
2018-06-08T08:58:52.800Z,30.98
2018-06-08T09:01:21.799Z,31.09
2018-06-08T09:03:50.738Z,31.31
2018-06-08T09:06:19.732Z,31.53
2018-06-08T09:08:48.712Z,31.63
2018-06-08T09:11:17.793Z,31.76
2018-06-08T09:13:46.846Z,31.88
2018-06-08T09:16:15.837Z,31.82
2018-06-08T09:18:44.819Z,31.77
2018-06-08T09:21:13.813Z,31.84
2018-06-08T09:23:42.792Z,31.90
2018-06-08T09:26:11.724Z,31.96
2018-06-08T09:28:41.068Z,31.90
2018-06-08T09:31:10.456Z,31.77
2018-06-08T09:33:39.755Z,31.77
2018-06-08T09:36:09.207Z,31.95
2018-06-08T09:38:38.630Z,32.25
2018-06-08T09:41:07.844Z,32.56
2018-06-08T09:43:37.208Z,32.83
2018-06-08T09:46:06.434Z,33.00
2018-06-08T09:48:35.397Z,32.96
2018-06-08T09:51:04.510Z,32.96
2018-06-08T09:53:33.848Z,33.02
2018-06-08T09:56:03.208Z,32.95
2018-06-08T09:58:32.456Z,32.94
2018-06-08T10:01:01.824Z,32.88
2018-06-08T10:03:31.236Z,32.84
2018-06-08T10:06:00.529Z,32.93
2018-06-08T10:08:29.855Z,32.99
2018-06-08T10:10:59.081Z,33.08
2018-06-08T10:13:28.090Z,33.20
2018-06-08T10:15:57.039Z,33.20
2018-06-08T10:18:25.963Z,33.16
2018-06-08T10:20:55.073Z,33.28
2018-06-08T10:23:24.076Z,33.46
2018-06-08T10:25:53.032Z,33.42
2018-06-08T10:28:21.964Z,33.15
2018-06-08T10:30:50.903Z,33.23
2018-06-08T10:33:19.896Z,33.30
2018-06-08T10:35:51.735Z,33.37
2018-06-08T10:38:20.759Z,33.52
2018-06-08T10:40:49.699Z,33.65
2018-06-08T10:43:18.697Z,33.87
2018-06-08T10:45:47.765Z,33.89
2018-06-08T10:48:16.731Z,33.94
2018-06-08T10:50:45.727Z,33.97
2018-06-08T10:53:14.776Z,33.84
2018-06-08T10:55:43.821Z,33.92
2018-06-08T10:58:12.764Z,34.10
2018-06-08T11:00:41.701Z,33.95
2018-06-08T11:03:10.749Z,33.85
2018-06-08T11:05:39.676Z,33.86
2018-06-08T11:08:08.713Z,33.91
2018-06-08T11:10:37.713Z,33.92
2018-06-08T11:13:06.744Z,33.92
2018-06-08T11:15:35.807Z,33.95
2018-06-08T11:18:04.788Z,33.92
2018-06-08T11:20:33.781Z,33.66
2018-06-08T11:23:02.715Z,33.40
2018-06-08T11:25:31.705Z,33.22
2018-06-08T11:28:00.693Z,33.06
2018-06-08T11:30:29.676Z,32.86
2018-06-08T11:32:58.615Z,32.64
2018-06-08T11:35:27.626Z,32.59
2018-06-08T11:37:56.567Z,32.89
2018-06-08T11:40:25.552Z,33.23
2018-06-08T11:42:54.569Z,33.51
2018-06-08T11:45:23.649Z,33.57
2018-06-08T11:47:52.596Z,33.72
2018-06-08T11:50:21.783Z,33.84
2018-06-08T11:52:50.780Z,33.91
2018-06-08T11:55:19.971Z,33.92
2018-06-08T11:57:49.085Z,33.95
2018-06-08T12:00:18.076Z,33.77
2018-06-08T12:02:47.037Z,33.50
2018-06-08T12:05:16.021Z,33.22
2018-06-08T12:07:45.016Z,33.19
2018-06-08T12:10:13.973Z,33.40
2018-06-08T12:12:43.424Z,33.64
2018-06-08T12:15:12.477Z,33.83
2018-06-08T12:17:41.633Z,33.87
2018-06-08T12:20:10.717Z,33.98
2018-06-08T12:22:39.727Z,34.11
2018-06-08T12:25:08.664Z,34.19
2018-06-08T12:27:37.600Z,34.23
2018-06-08T12:30:06.689Z,34.19
2018-06-08T12:32:35.768Z,34.00
2018-06-08T12:35:04.776Z,33.77
2018-06-08T12:37:33.790Z,33.68
2018-06-08T12:40:02.737Z,33.67
2018-06-08T12:42:31.764Z,33.56
2018-06-08T12:45:00.800Z,33.65
2018-06-08T12:47:29.989Z,33.70
2018-06-08T12:49:58.980Z,33.47
2018-06-08T12:52:27.916Z,33.32
2018-06-08T12:54:56.965Z,33.47
2018-06-08T12:57:25.947Z,33.68
2018-06-08T12:59:55.736Z,33.68
2018-06-08T13:02:24.824Z,33.83
2018-06-08T13:04:53.752Z,33.91
2018-06-08T13:07:22.800Z,33.93
2018-06-08T13:09:51.794Z,33.77
2018-06-08T13:12:20.688Z,33.76
2018-06-08T13:14:49.620Z,33.84
2018-06-08T13:17:18.697Z,33.81
2018-06-08T13:19:47.681Z,33.79
2018-06-08T13:22:16.665Z,33.49
2018-06-08T13:24:45.642Z,33.36
2018-06-08T13:27:14.641Z,33.25
2018-06-08T13:29:43.660Z,33.10
2018-06-08T13:32:12.741Z,33.10
2018-06-08T13:34:41.809Z,33.23
2018-06-08T13:37:10.756Z,33.11
2018-06-08T13:39:39.714Z,32.98
2018-06-08T13:42:08.712Z,33.00
2018-06-08T13:44:37.756Z,32.96
2018-06-08T13:47:06.813Z,32.81
2018-06-08T13:49:35.893Z,32.55
2018-06-08T13:52:04.914Z,32.49
2018-06-08T13:54:33.847Z,32.66
2018-06-08T13:57:02.904Z,32.87
2018-06-08T13:59:31.884Z,33.06
2018-06-08T14:02:00.941Z,33.36
2018-06-08T14:04:29.871Z,33.51
2018-06-08T14:06:58.792Z,33.31
2018-06-08T14:09:27.847Z,33.32
2018-06-08T14:11:57.172Z,33.32
2018-06-08T14:14:26.166Z,33.18
2018-06-08T14:16:55.496Z,33.11
2018-06-08T14:19:24.504Z,33.11
2018-06-08T14:21:53.736Z,33.16
2018-06-08T14:24:23.000Z,33.20
2018-06-08T14:26:52.324Z,33.20
2018-06-08T14:29:21.564Z,33.29
2018-06-08T14:31:50.780Z,33.14
2018-06-08T14:34:20.108Z,33.10
2018-06-08T14:36:49.437Z,33.00
2018-06-08T14:39:18.713Z,32.99
2018-06-08T14:41:48.041Z,33.04
2018-06-08T14:44:17.466Z,33.13
2018-06-08T14:46:47.096Z,33.05
2018-06-08T14:49:16.800Z,32.92
2018-06-08T14:51:46.284Z,32.75
2018-06-08T14:54:15.386Z,32.46
2018-06-08T14:56:44.312Z,32.35
2018-06-08T14:59:13.392Z,32.24
2018-06-08T15:01:42.372Z,32.10
2018-06-08T15:04:11.307Z,32.03
2018-06-08T15:06:40.346Z,31.95
2018-06-08T15:09:09.759Z,31.81
2018-06-08T15:11:38.820Z,31.85
2018-06-08T15:14:07.755Z,31.89
2018-06-08T15:16:36.740Z,31.80
2018-06-08T15:19:05.748Z,31.73
2018-06-08T15:21:34.684Z,31.64
2018-06-08T15:24:03.760Z,31.45
2018-06-08T15:26:32.800Z,31.39
2018-06-08T15:29:01.824Z,31.23
2018-06-08T15:31:30.775Z,31.19
2018-06-08T15:33:59.756Z,31.17
2018-06-08T15:36:29.201Z,31.09
2018-06-08T15:38:58.466Z,31.02
2018-06-08T15:41:27.688Z,30.94
2018-06-08T15:43:56.651Z,30.78
2018-06-08T15:46:25.585Z,30.73
2018-06-08T15:48:54.584Z,30.66
2018-06-08T15:51:23.972Z,30.55
2018-06-08T15:53:53.303Z,30.40
2018-06-08T15:56:22.682Z,30.32
2018-06-08T15:58:51.616Z,30.22
2018-06-08T16:01:20.944Z,30.18
2018-06-08T16:03:50.148Z,30.26
2018-06-08T16:06:19.476Z,30.27
2018-06-08T16:08:48.704Z,30.16
2018-06-08T16:11:17.999Z,30.12
2018-06-08T16:13:47.322Z,30.03
2018-06-08T16:16:16.662Z,29.95
2018-06-08T16:18:46.101Z,29.99
2018-06-08T16:21:15.460Z,29.97
2018-06-08T16:23:44.485Z,29.88
2018-06-08T16:26:13.548Z,29.84
2018-06-08T16:28:42.584Z,29.84
2018-06-08T16:31:11.578Z,29.79
2018-06-08T16:33:40.549Z,29.77
2018-06-08T16:36:09.614Z,29.70
2018-06-08T16:38:38.587Z,29.64
2018-06-08T16:41:07.604Z,29.51
2018-06-08T16:43:36.604Z,29.40
2018-06-08T16:46:05.672Z,29.36
2018-06-08T16:48:34.613Z,29.29
2018-06-08T16:51:03.612Z,29.24
2018-06-08T16:53:32.564Z,29.12
2018-06-08T16:56:01.489Z,29.05
2018-06-08T16:58:30.560Z,29.00
2018-06-08T17:00:59.548Z,28.93
2018-06-08T17:03:28.563Z,28.87
2018-06-08T17:05:57.754Z,28.82
2018-06-08T17:08:26.856Z,28.76
2018-06-08T17:10:55.994Z,28.71
2018-06-08T17:13:25.121Z,28.63
2018-06-08T17:15:54.332Z,28.55
2018-06-08T17:18:23.556Z,28.51
2018-06-08T17:20:52.868Z,28.43
2018-06-08T17:23:22.237Z,28.33
2018-06-08T17:25:51.672Z,28.29
2018-06-08T17:28:21.024Z,28.23
2018-06-08T17:30:50.380Z,28.18
2018-06-08T17:33:19.509Z,28.13
2018-06-08T17:35:48.777Z,28.03
2018-06-08T17:38:18.185Z,27.96
2018-06-08T17:40:47.734Z,27.88
2018-06-08T17:43:17.020Z,27.81
2018-06-08T17:45:46.212Z,27.72
2018-06-08T17:48:15.595Z,27.68
2018-06-08T17:50:45.000Z,27.63
2018-06-08T17:53:14.388Z,27.56
2018-06-08T17:55:43.753Z,27.51
2018-06-08T17:58:13.081Z,27.43
2018-06-08T18:00:42.077Z,27.39
2018-06-08T18:03:11.291Z,27.31
2018-06-08T18:05:40.581Z,27.24
2018-06-08T18:08:09.916Z,27.20
2018-06-08T18:10:39.068Z,27.15
2018-06-08T18:13:08.204Z,27.10
2018-06-08T18:15:37.360Z,27.02
2018-06-08T18:18:06.709Z,26.98
2018-06-08T18:20:35.813Z,26.96
2018-06-08T18:23:05.120Z,26.89
2018-06-08T18:25:34.400Z,26.83
2018-06-08T18:28:03.589Z,26.81
2018-06-08T18:30:32.981Z,26.79
2018-06-08T18:33:02.370Z,26.78
2018-06-08T18:35:31.682Z,26.75
2018-06-08T18:38:00.957Z,26.68
2018-06-08T18:40:30.260Z,26.64
2018-06-08T18:42:59.407Z,26.62
2018-06-08T18:45:28.689Z,26.60
2018-06-08T18:47:57.895Z,26.54
2018-06-08T18:50:26.980Z,26.47
2018-06-08T18:52:56.365Z,26.47
2018-06-08T18:55:25.624Z,26.45
2018-06-08T18:57:55.249Z,26.42
2018-06-08T19:00:24.512Z,26.39
2018-06-08T19:02:53.832Z,26.34
2018-06-08T19:05:23.126Z,26.32
2018-06-08T19:07:52.400Z,26.29
2018-06-08T19:10:21.769Z,26.23
2018-06-08T19:12:51.011Z,26.16
2018-06-08T19:15:20.196Z,26.11
2018-06-08T19:17:49.388Z,26.09
2018-06-08T19:20:18.661Z,26.07
2018-06-08T19:22:47.935Z,26.03
2018-06-08T19:25:16.944Z,25.95
2018-06-08T19:27:46.146Z,25.96
2018-06-08T19:30:15.324Z,25.86
2018-06-08T19:32:44.693Z,25.83
2018-06-08T19:35:14.100Z,25.84
2018-06-08T19:37:43.300Z,25.81
2018-06-08T19:40:12.252Z,25.78
2018-06-08T19:42:41.190Z,25.78
2018-06-08T19:45:10.368Z,25.82
2018-06-08T19:47:39.560Z,25.87
2018-06-08T19:50:08.595Z,25.93
2018-06-08T19:52:37.568Z,25.91
2018-06-08T19:55:06.600Z,25.87
2018-06-08T19:57:35.712Z,25.84
2018-06-08T20:00:05.036Z,25.84
2018-06-08T20:02:34.153Z,25.79
2018-06-08T20:05:03.460Z,25.73
2018-06-08T20:07:32.580Z,25.75
2018-06-08T20:10:01.974Z,25.70
2018-06-08T20:12:31.194Z,25.62
2018-06-08T20:15:00.528Z,25.53
2018-06-08T20:17:29.472Z,25.53
2018-06-08T20:19:58.576Z,25.54
2018-06-08T20:22:27.705Z,25.57
2018-06-08T20:24:57.117Z,25.53
2018-06-08T20:27:26.508Z,25.53
2018-06-08T20:29:55.796Z,25.48
2018-06-08T20:32:24.742Z,25.39
2018-06-08T20:34:53.882Z,25.27
2018-06-08T20:37:23.065Z,25.23
2018-06-08T20:39:52.411Z,25.16
2018-06-08T20:42:21.488Z,25.15
2018-06-08T20:44:50.808Z,25.10
2018-06-08T20:47:20.177Z,24.97
2018-06-08T20:49:49.356Z,24.88
2018-06-08T20:52:18.529Z,24.87
2018-06-08T20:54:47.875Z,24.82
2018-06-08T20:57:25.305Z,24.63
2018-06-08T20:59:54.762Z,24.52
2018-06-08T21:02:24.115Z,24.47
2018-06-08T21:04:53.196Z,24.46
2018-06-08T21:07:22.989Z,24.41
2018-06-08T21:09:52.272Z,24.34
2018-06-08T21:12:21.721Z,24.31
2018-06-08T21:14:51.046Z,24.29
2018-06-08T21:17:20.456Z,24.19
2018-06-08T21:19:49.684Z,24.14
2018-06-08T21:22:18.932Z,24.14
2018-06-08T21:24:49.829Z,24.10
2018-06-08T21:27:19.768Z,24.14
2018-06-08T21:29:49.438Z,24.21
2018-06-08T21:32:18.407Z,24.19
2018-06-08T21:34:47.445Z,24.23
2018-06-08T21:37:16.529Z,24.29
2018-06-08T21:39:45.557Z,24.27
2018-06-08T21:42:14.591Z,24.26
2018-06-08T21:44:43.780Z,24.26
2018-06-08T21:47:13.020Z,24.28
2018-06-08T21:49:42.017Z,24.31
2018-06-08T21:52:11.349Z,24.33
2018-06-08T21:54:40.427Z,24.43
2018-06-08T21:57:09.356Z,24.47
2018-06-08T21:59:38.364Z,24.46
2018-06-08T22:02:07.328Z,24.43
2018-06-08T22:04:36.340Z,24.39
2018-06-08T22:07:05.351Z,24.35
2018-06-08T22:09:34.396Z,24.34
2018-06-08T22:12:03.351Z,24.25
2018-06-08T22:14:32.362Z,24.19
2018-06-08T22:17:01.386Z,24.10
2018-06-08T22:19:30.364Z,24.01
2018-06-08T22:21:59.368Z,24.02
2018-06-08T22:24:28.656Z,24.09
2018-06-08T22:26:57.832Z,24.10
2018-06-08T22:29:27.017Z,24.06
2018-06-08T22:31:56.059Z,24.06
2018-06-08T22:34:25.121Z,24.19
2018-06-08T22:36:54.209Z,24.18
2018-06-08T22:39:23.225Z,24.13
2018-06-08T22:41:52.247Z,24.11
2018-06-08T22:44:21.200Z,24.07
2018-06-08T22:46:50.256Z,24.00
2018-06-08T22:49:19.189Z,23.93
2018-06-08T22:51:48.512Z,23.81
2018-06-08T22:54:17.521Z,23.75
2018-06-08T22:56:46.680Z,23.71
2018-06-08T22:59:15.698Z,23.73
2018-06-08T23:01:44.704Z,23.65
2018-06-08T23:04:13.718Z,23.64
2018-06-08T23:06:42.716Z,23.69
2018-06-08T23:09:11.713Z,23.70
2018-06-08T23:11:40.733Z,23.71
2018-06-08T23:14:09.733Z,23.76
2018-06-08T23:16:38.768Z,23.83
2018-06-08T23:19:07.821Z,23.88
2018-06-08T23:21:36.829Z,24.00
2018-06-08T23:24:05.812Z,24.08
2018-06-08T23:26:34.774Z,24.15
2018-06-08T23:29:03.724Z,24.16
2018-06-08T23:31:32.643Z,24.12
2018-06-08T23:34:01.580Z,24.17
2018-06-08T23:36:30.568Z,24.20
2018-06-08T23:38:59.593Z,24.15
2018-06-08T23:41:28.612Z,24.13
2018-06-08T23:43:57.568Z,24.04
2018-06-08T23:46:26.568Z,23.96
2018-06-08T23:48:55.508Z,23.85
2018-06-08T23:51:24.511Z,23.75
2018-06-08T23:53:53.451Z,23.65
2018-06-08T23:56:22.518Z,23.60
2018-06-08T23:58:51.541Z,23.57
